createdAt,value
2023-05-25T00:00:19.136Z,12.89
2023-05-25T00:02:49.281Z,12.88
2023-05-25T00:05:18.424Z,12.82
2023-05-25T00:07:45.389Z,12.80
2023-05-25T00:10:13.705Z,12.72
2023-05-25T00:12:40.826Z,12.65
2023-05-25T00:15:08.337Z,12.64
2023-05-25T00:17:37.279Z,12.68
2023-05-25T00:20:07.446Z,12.63
2023-05-25T00:22:38.231Z,12.51
2023-05-25T00:25:06.822Z,12.45
2023-05-25T00:27:33.854Z,12.40
2023-05-25T00:30:00.881Z,12.38
2023-05-25T00:32:27.927Z,12.35
2023-05-25T00:34:55.383Z,12.34
2023-05-25T00:37:22.333Z,12.28
2023-05-25T00:39:49.247Z,12.24
2023-05-25T00:42:16.425Z,12.17
2023-05-25T00:44:43.410Z,12.18
2023-05-25T00:47:11.809Z,12.15
2023-05-25T00:49:41.653Z,12.10
2023-05-25T00:52:13.237Z,12.11
2023-05-25T00:54:40.453Z,12.02
2023-05-25T00:57:08.377Z,12.00
2023-05-25T00:59:55.947Z,11.97
2023-05-25T01:02:24.353Z,11.92
2023-05-25T01:04:54.242Z,11.92
2023-05-25T01:07:26.977Z,11.92
2023-05-25T01:10:02.897Z,11.88
2023-05-25T01:12:30.709Z,11.88
2023-05-25T01:14:58.559Z,11.87
2023-05-25T01:17:28.986Z,11.84
2023-05-25T01:20:09.455Z,11.83
2023-05-25T01:22:51.366Z,11.85
2023-05-25T01:25:40.198Z,11.80
2023-05-25T01:28:11.657Z,11.78
2023-05-25T01:30:42.236Z,11.74
2023-05-25T01:33:11.035Z,11.68
2023-05-25T01:35:40.973Z,11.68
2023-05-25T01:38:09.671Z,11.67
2023-05-25T01:40:36.585Z,11.62
2023-05-25T01:43:03.517Z,11.61
2023-05-25T01:45:33.014Z,11.48
2023-05-25T01:48:41.433Z,11.42
2023-05-25T01:51:26.793Z,11.40
2023-05-25T01:54:01.568Z,11.44
2023-05-25T01:56:31.672Z,11.48
2023-05-25T01:59:01.966Z,11.45
2023-05-25T02:01:30.383Z,11.44
2023-05-25T02:03:57.847Z,11.44
2023-05-25T02:06:24.871Z,11.48
2023-05-25T02:08:51.821Z,11.48
2023-05-25T02:11:18.755Z,11.46
2023-05-25T02:13:45.838Z,11.49
2023-05-25T02:16:12.745Z,11.44
2023-05-25T02:18:39.713Z,11.37
2023-05-25T02:21:06.595Z,11.35
2023-05-25T02:23:33.507Z,11.36
2023-05-25T02:26:00.467Z,11.32
2023-05-25T02:28:27.404Z,11.31
2023-05-25T02:30:55.502Z,11.27
2023-05-25T02:33:22.443Z,11.21
2023-05-25T02:35:49.788Z,11.20
2023-05-25T02:38:16.722Z,11.22
2023-05-25T02:40:43.592Z,11.19
2023-05-25T02:43:10.594Z,11.17
2023-05-25T02:45:37.486Z,11.16
2023-05-25T02:48:04.620Z,11.13
2023-05-25T02:50:31.504Z,11.15
2023-05-25T02:52:58.441Z,11.15
2023-05-25T02:55:26.105Z,11.12
2023-05-25T02:57:53.091Z,11.11
2023-05-25T03:00:20.790Z,11.10
2023-05-25T03:02:48.901Z,11.09
2023-05-25T03:05:16.678Z,11.07
2023-05-25T03:07:43.659Z,11.04
2023-05-25T03:10:11.803Z,10.98
2023-05-25T03:12:38.772Z,10.98
2023-05-25T03:15:06.481Z,10.97
2023-05-25T03:17:33.425Z,10.95
2023-05-25T03:20:01.384Z,10.94
2023-05-25T03:22:34.667Z,10.91
2023-05-25T03:25:04.735Z,10.86
2023-05-25T03:27:33.944Z,10.86
2023-05-25T03:30:01.726Z,10.83
2023-05-25T03:32:35.951Z,10.82
2023-05-25T03:35:07.276Z,10.83
2023-05-25T03:37:34.380Z,10.84
2023-05-25T03:40:01.354Z,10.86
2023-05-25T03:42:31.134Z,10.84
2023-05-25T03:45:00.979Z,10.81
2023-05-25T03:47:34.546Z,10.81
2023-05-25T03:50:01.763Z,10.82
2023-05-25T03:52:28.731Z,10.84
2023-05-25T03:54:55.976Z,10.88
2023-05-25T03:57:22.967Z,10.93
2023-05-25T03:59:49.825Z,11.00
2023-05-25T04:02:16.967Z,11.10
2023-05-25T04:04:44.063Z,11.22
2023-05-25T04:07:12.178Z,11.30
2023-05-25T04:09:39.012Z,11.41
2023-05-25T04:12:06.604Z,11.48
2023-05-25T04:14:36.438Z,11.55
2023-05-25T04:17:03.351Z,11.66
2023-05-25T04:19:30.380Z,11.74
2023-05-25T04:21:57.413Z,11.79
2023-05-25T04:24:24.274Z,11.85
2023-05-25T04:26:51.358Z,11.90
2023-05-25T04:29:18.305Z,11.94
2023-05-25T04:31:46.253Z,12.05
2023-05-25T04:34:15.033Z,12.16
2023-05-25T04:36:43.250Z,12.26
2023-05-25T04:39:10.233Z,12.32
2023-05-25T04:41:37.798Z,12.51
2023-05-25T04:44:09.741Z,12.64
2023-05-25T04:46:37.450Z,12.80
2023-05-25T04:49:05.638Z,12.95
2023-05-25T04:51:32.780Z,13.11
2023-05-25T04:54:00.064Z,13.14
2023-05-25T04:56:27.141Z,13.23
2023-05-25T04:58:54.265Z,13.36
2023-05-25T05:01:21.212Z,13.49
2023-05-25T05:03:48.245Z,13.68
2023-05-25T05:06:15.336Z,13.73
2023-05-25T05:08:42.421Z,13.86
2023-05-25T05:11:09.305Z,13.81
2023-05-25T05:13:36.205Z,13.88
2023-05-25T05:16:03.101Z,13.97
2023-05-25T05:18:30.088Z,14.10
2023-05-25T05:20:57.155Z,14.29
2023-05-25T05:23:24.148Z,14.51
2023-05-25T05:25:51.045Z,14.73
2023-05-25T05:28:18.041Z,14.95
2023-05-25T05:30:46.700Z,15.08
2023-05-25T05:33:14.639Z,15.07
2023-05-25T05:35:41.879Z,15.10
2023-05-25T05:38:09.493Z,15.32
2023-05-25T05:40:36.503Z,15.60
2023-05-25T05:43:03.499Z,15.82
2023-05-25T05:45:30.392Z,15.99
2023-05-25T05:47:57.256Z,16.16
2023-05-25T05:50:24.163Z,16.43
2023-05-25T05:52:51.343Z,16.42
2023-05-25T05:55:18.370Z,16.66
2023-05-25T05:57:45.442Z,16.94
2023-05-25T06:00:13.883Z,17.18
2023-05-25T06:02:41.949Z,17.32
2023-05-25T06:05:09.563Z,17.59
2023-05-25T06:07:37.960Z,17.86
2023-05-25T06:10:08.895Z,18.08
2023-05-25T06:12:36.006Z,17.98
2023-05-25T06:15:03.625Z,18.04
2023-05-25T06:17:30.643Z,18.16
2023-05-25T06:19:57.688Z,17.81
2023-05-25T06:22:27.835Z,17.95
2023-05-25T06:24:55.149Z,18.41
2023-05-25T06:27:23.317Z,19.13
2023-05-25T06:29:50.275Z,19.47
2023-05-25T06:32:17.173Z,19.81
2023-05-25T06:34:44.165Z,20.10
2023-05-25T06:37:11.299Z,20.40
2023-05-25T06:39:39.949Z,21.00
2023-05-25T06:42:07.304Z,21.23
2023-05-25T06:44:34.572Z,21.45
2023-05-25T06:47:01.892Z,22.03
2023-05-25T06:49:29.592Z,22.60
2023-05-25T06:51:56.556Z,23.12
2023-05-25T06:54:23.457Z,23.43
2023-05-25T06:56:50.620Z,23.96
2023-05-25T06:59:18.426Z,24.30
2023-05-25T07:01:48.652Z,24.76
2023-05-25T07:04:15.911Z,24.65
2023-05-25T07:06:42.824Z,24.94
2023-05-25T07:09:10.212Z,25.64
2023-05-25T07:11:37.178Z,25.84
2023-05-25T07:14:04.137Z,26.34
2023-05-25T07:16:31.941Z,26.68
2023-05-25T07:19:00.353Z,27.32
2023-05-25T07:21:27.899Z,28.02
2023-05-25T07:23:54.832Z,28.42
2023-05-25T07:26:23.026Z,28.49
2023-05-25T07:28:49.916Z,28.80
2023-05-25T07:31:17.548Z,28.88
2023-05-25T07:33:45.066Z,28.96
2023-05-25T07:36:12.527Z,29.39
2023-05-25T07:38:39.894Z,29.25
2023-05-25T07:41:06.975Z,29.32
2023-05-25T07:43:33.943Z,29.32
2023-05-25T07:46:02.408Z,29.49
2023-05-25T07:48:29.328Z,29.65
2023-05-25T07:50:56.516Z,29.47
2023-05-25T07:53:23.520Z,30.18
2023-05-25T07:55:50.814Z,29.47
2023-05-25T07:58:17.739Z,29.76
2023-05-25T08:00:44.685Z,29.95
2023-05-25T08:03:12.217Z,29.64
2023-05-25T08:05:39.961Z,29.84
2023-05-25T08:08:06.913Z,30.60
2023-05-25T08:10:33.888Z,30.91
2023-05-25T08:13:00.914Z,31.26
2023-05-25T08:15:28.251Z,31.26
2023-05-25T08:17:56.597Z,31.39
2023-05-25T08:20:25.136Z,31.43
2023-05-25T08:22:53.435Z,31.12
2023-05-25T08:25:20.822Z,31.21
2023-05-25T08:27:48.473Z,31.37
2023-05-25T08:30:15.584Z,31.70
2023-05-25T08:32:42.589Z,31.48
2023-05-25T08:35:10.086Z,32.22
2023-05-25T08:37:37.044Z,32.89
2023-05-25T08:40:04.573Z,32.68
2023-05-25T08:42:31.580Z,32.70
2023-05-25T08:44:58.883Z,32.79
2023-05-25T08:47:33.679Z,32.92
2023-05-25T08:50:02.079Z,33.47
2023-05-25T08:52:33.100Z,32.67
2023-05-25T08:55:05.707Z,33.07
2023-05-25T08:57:48.150Z,32.62
2023-05-25T09:00:16.196Z,32.65
2023-05-25T09:03:07.235Z,31.86
2023-05-25T09:05:41.090Z,32.00
2023-05-25T09:08:09.282Z,32.64
2023-05-25T09:10:38.276Z,33.49
2023-05-25T09:13:19.860Z,33.71
2023-05-25T09:15:49.611Z,34.11
2023-05-25T09:18:25.565Z,34.93
2023-05-25T09:20:53.263Z,34.79
2023-05-25T09:23:21.219Z,34.85
2023-05-25T09:25:50.599Z,34.51
2023-05-25T09:28:27.050Z,34.34
2023-05-25T09:30:55.222Z,34.77
2023-05-25T09:33:22.373Z,33.73
2023-05-25T09:35:49.785Z,33.49
2023-05-25T09:38:17.503Z,34.36
2023-05-25T09:40:45.351Z,34.77
2023-05-25T09:43:21.979Z,33.80
2023-05-25T09:45:56.144Z,34.22
2023-05-25T09:48:24.280Z,33.85
2023-05-25T09:50:51.777Z,33.82
2023-05-25T09:53:19.100Z,33.99
2023-05-25T09:55:53.888Z,33.65
2023-05-25T09:58:24.960Z,33.37
2023-05-25T10:00:55.482Z,32.77
2023-05-25T10:03:22.773Z,32.44
2023-05-25T10:05:50.446Z,31.98
2023-05-25T10:08:21.722Z,31.23
2023-05-25T10:10:50.413Z,30.77
2023-05-25T10:13:28.991Z,29.70
2023-05-25T10:15:56.818Z,28.63
2023-05-25T10:18:28.673Z,27.80
2023-05-25T10:21:04.584Z,27.06
2023-05-25T10:23:43.061Z,26.38
2023-05-25T10:26:12.982Z,25.88
2023-05-25T10:28:40.963Z,25.35
2023-05-25T10:31:10.232Z,25.03
2023-05-25T10:33:37.538Z,24.49
2023-05-25T10:38:35.316Z,23.72
2023-05-25T10:41:04.687Z,23.50
2023-05-25T10:43:32.544Z,23.34
2023-05-25T10:45:59.440Z,23.32
2023-05-25T10:48:39.791Z,23.16
2023-05-25T10:51:09.076Z,23.14
2023-05-25T10:53:38.190Z,22.89
2023-05-25T10:56:09.862Z,22.68
2023-05-25T10:58:46.342Z,22.52
2023-05-25T11:01:15.015Z,22.33
2023-05-25T11:03:45.314Z,22.29
2023-05-25T11:06:13.637Z,22.27
2023-05-25T11:09:02.584Z,22.14
2023-05-25T11:11:45.375Z,22.07
2023-05-25T11:14:38.229Z,22.08
2023-05-25T11:17:14.513Z,22.01
2023-05-25T11:19:54.703Z,21.94
2023-05-25T11:22:37.990Z,21.83
2023-05-25T11:25:39.782Z,21.77
2023-05-25T11:28:10.639Z,21.76
2023-05-25T11:30:41.127Z,21.77
2023-05-25T11:33:09.022Z,21.86
2023-05-25T11:35:39.311Z,21.64
2023-05-25T11:38:08.053Z,21.60
2023-05-25T11:40:36.385Z,21.60
2023-05-25T11:43:06.592Z,21.69
2023-05-25T11:45:33.987Z,21.58
2023-05-25T11:48:01.209Z,21.54
2023-05-25T11:50:28.282Z,21.58
2023-05-25T11:52:55.504Z,21.60
2023-05-25T11:55:22.571Z,21.70
2023-05-25T11:57:57.176Z,21.77
2023-05-25T12:00:28.546Z,21.82
2023-05-25T12:02:56.573Z,21.74
2023-05-25T12:05:24.497Z,21.75
2023-05-25T12:07:52.715Z,21.73
2023-05-25T12:10:19.780Z,21.73
2023-05-25T12:12:52.282Z,21.75
2023-05-25T12:15:24.536Z,21.72
2023-05-25T12:17:53.593Z,21.66
2023-05-25T12:20:21.207Z,21.67
2023-05-25T12:22:48.700Z,21.67
2023-05-25T12:25:21.206Z,21.73
2023-05-25T12:27:48.224Z,21.74
2023-05-25T12:30:15.196Z,21.67
2023-05-25T12:33:04.172Z,21.71
2023-05-25T12:35:46.721Z,21.70
2023-05-25T12:38:21.876Z,21.69
2023-05-25T12:41:08.134Z,21.69
2023-05-25T12:43:52.170Z,21.77
2023-05-25T12:46:25.991Z,21.83
2023-05-25T12:48:56.330Z,21.86
2023-05-25T12:51:23.486Z,21.83
2023-05-25T12:53:51.573Z,21.82
2023-05-25T12:56:18.960Z,21.82
2023-05-25T12:58:45.961Z,21.86
2023-05-25T13:01:12.937Z,21.89
2023-05-25T13:03:39.862Z,21.88
2023-05-25T13:06:07.004Z,21.88
2023-05-25T13:08:34.551Z,21.89
2023-05-25T13:11:03.808Z,21.92
2023-05-25T13:13:30.818Z,21.95
2023-05-25T13:15:58.304Z,21.94
2023-05-25T13:18:25.317Z,21.97
2023-05-25T13:20:56.065Z,21.95
2023-05-25T13:23:23.826Z,21.92
2023-05-25T13:25:50.754Z,21.87
2023-05-25T13:28:17.614Z,21.80
2023-05-25T13:30:44.567Z,21.85
2023-05-25T13:33:11.592Z,21.92
2023-05-25T13:35:45.794Z,21.91
2023-05-25T13:38:14.464Z,21.92
2023-05-25T13:40:42.879Z,21.97
2023-05-25T13:43:10.041Z,22.01
2023-05-25T13:45:38.584Z,21.99
2023-05-25T13:48:05.565Z,22.05
2023-05-25T13:50:32.554Z,22.04
2023-05-25T13:52:59.486Z,22.01
2023-05-25T13:55:26.419Z,22.05
2023-05-25T13:57:53.666Z,22.03
2023-05-25T14:00:20.803Z,22.02
2023-05-25T14:02:47.884Z,22.09
2023-05-25T14:05:14.903Z,22.07
2023-05-25T14:07:41.796Z,22.12
2023-05-25T14:10:10.058Z,22.11
2023-05-25T14:12:37.150Z,22.10
2023-05-25T14:15:05.608Z,22.15
2023-05-25T14:17:32.667Z,22.18
2023-05-25T14:20:00.163Z,22.17
2023-05-25T14:22:27.953Z,22.19
2023-05-25T14:24:54.852Z,22.19
2023-05-25T14:27:22.136Z,22.16
2023-05-25T14:29:52.350Z,22.16
2023-05-25T14:32:19.543Z,22.22
2023-05-25T14:34:47.446Z,22.22
2023-05-25T14:37:14.388Z,22.27
2023-05-25T14:39:41.349Z,22.29
2023-05-25T14:42:08.321Z,22.24
2023-05-25T14:44:35.383Z,22.23
2023-05-25T14:47:02.737Z,22.21
2023-05-25T14:49:29.757Z,22.22
2023-05-25T14:51:56.661Z,22.22
2023-05-25T14:54:23.602Z,22.16
2023-05-25T14:56:50.481Z,22.18
2023-05-25T14:59:17.493Z,22.20
2023-05-25T15:01:46.450Z,22.20
2023-05-25T15:04:13.923Z,22.22
2023-05-25T15:06:40.893Z,22.26
2023-05-25T15:09:07.849Z,22.28
2023-05-25T15:11:34.728Z,22.27
2023-05-25T15:14:01.912Z,22.30
2023-05-25T15:16:28.992Z,22.27
2023-05-25T15:18:56.321Z,22.28
2023-05-25T15:21:23.215Z,22.26
2023-05-25T15:23:50.176Z,22.31
2023-05-25T15:26:17.062Z,22.35
2023-05-25T15:28:44.179Z,22.36
2023-05-25T15:31:11.142Z,22.37
2023-05-25T15:33:52.060Z,22.33
2023-05-25T15:36:23.436Z,22.29
2023-05-25T15:38:50.336Z,22.30
2023-05-25T15:41:17.831Z,22.27
2023-05-25T15:44:01.114Z,22.25
2023-05-25T15:46:28.817Z,22.30
2023-05-25T15:48:56.327Z,22.28
2023-05-25T15:51:23.317Z,22.29
2023-05-25T15:53:50.309Z,22.28
2023-05-25T15:56:17.172Z,22.29
2023-05-25T15:58:47.065Z,22.32
2023-05-25T16:01:14.152Z,22.32
2023-05-25T16:03:42.975Z,22.25
2023-05-25T16:06:10.418Z,22.26
2023-05-25T16:08:37.285Z,22.23
2023-05-25T16:11:04.265Z,22.21
2023-05-25T16:13:31.157Z,22.25
2023-05-25T16:15:58.266Z,22.26
2023-05-25T16:18:25.311Z,22.30
2023-05-25T16:20:56.155Z,22.32
2023-05-25T16:23:24.223Z,22.25
2023-05-25T16:25:51.283Z,22.17
2023-05-25T16:28:18.269Z,22.14
2023-05-25T16:30:45.332Z,22.13
2023-05-25T16:33:12.357Z,22.16
2023-05-25T16:35:39.313Z,22.14
2023-05-25T16:38:06.235Z,22.16
2023-05-25T16:40:33.495Z,22.05
2023-05-25T16:43:00.560Z,22.05
2023-05-25T16:45:27.579Z,22.01
2023-05-25T16:47:54.555Z,21.94
2023-05-25T16:50:21.528Z,22.02
2023-05-25T16:52:49.673Z,22.05
2023-05-25T16:55:16.647Z,22.07
2023-05-25T16:57:43.516Z,22.04
2023-05-25T17:00:11.552Z,21.93
2023-05-25T17:02:38.644Z,21.94
2023-05-25T17:05:06.812Z,21.96
2023-05-25T17:07:34.796Z,21.97
2023-05-25T17:10:02.284Z,21.89
2023-05-25T17:12:29.260Z,21.89
2023-05-25T17:14:56.679Z,21.88
2023-05-25T17:17:24.597Z,21.82
2023-05-25T17:19:53.424Z,21.77
2023-05-25T17:22:20.491Z,21.78
2023-05-25T17:24:47.496Z,21.75
2023-05-25T17:27:14.387Z,21.75
2023-05-25T17:29:42.028Z,21.75
2023-05-25T17:32:08.970Z,21.72
2023-05-25T17:34:35.907Z,21.72
2023-05-25T17:37:02.867Z,21.66
2023-05-25T17:39:29.838Z,21.60
2023-05-25T17:41:56.808Z,21.59
2023-05-25T17:44:23.967Z,21.55
2023-05-25T17:46:50.900Z,21.57
2023-05-25T17:49:17.832Z,21.52
2023-05-25T17:51:44.732Z,21.49
2023-05-25T17:54:15.381Z,21.47
2023-05-25T17:56:42.305Z,21.44
2023-05-25T17:59:09.618Z,21.43
2023-05-25T18:01:36.897Z,21.40
2023-05-25T18:04:04.551Z,21.36
2023-05-25T18:06:31.773Z,21.35
2023-05-25T18:08:58.804Z,21.28
2023-05-25T18:11:27.899Z,21.25
2023-05-25T18:13:54.823Z,21.22
2023-05-25T18:16:21.781Z,21.20
2023-05-25T18:18:48.749Z,21.18
2023-05-25T18:21:15.625Z,21.12
2023-05-25T18:23:42.483Z,21.05
2023-05-25T18:26:09.325Z,21.02
2023-05-25T18:28:36.292Z,20.93
2023-05-25T18:31:03.194Z,20.91
2023-05-25T18:33:30.162Z,20.88
2023-05-25T18:35:57.992Z,20.82
2023-05-25T18:38:24.868Z,20.77
2023-05-25T18:40:51.841Z,20.73
2023-05-25T18:43:18.805Z,20.71
2023-05-25T18:45:46.092Z,20.63
2023-05-25T18:48:13.407Z,20.64
2023-05-25T18:50:42.116Z,20.58
2023-05-25T18:53:10.662Z,20.50
2023-05-25T18:55:38.081Z,20.47
2023-05-25T18:58:05.591Z,20.42
2023-05-25T19:00:32.559Z,20.41
2023-05-25T19:02:59.866Z,20.34
2023-05-25T19:05:27.134Z,20.34
2023-05-25T19:07:59.533Z,20.25
2023-05-25T19:10:27.269Z,20.19
2023-05-25T19:12:54.235Z,20.10
2023-05-25T19:15:21.250Z,20.06
2023-05-25T19:17:48.450Z,20.01
2023-05-25T19:20:15.929Z,19.96
2023-05-25T19:22:43.433Z,19.90
2023-05-25T19:25:10.536Z,19.83
2023-05-25T19:27:37.513Z,19.81
2023-05-25T19:30:05.022Z,19.74
2023-05-25T19:32:32.218Z,19.70
2023-05-25T19:34:59.207Z,19.66
2023-05-25T19:37:26.877Z,19.57
2023-05-25T19:39:53.886Z,19.53
2023-05-25T19:42:20.930Z,19.53
2023-05-25T19:44:47.858Z,19.47
2023-05-25T19:47:15.066Z,19.43
2023-05-25T19:49:42.706Z,19.38
2023-05-25T19:52:09.655Z,19.35
2023-05-25T19:54:36.623Z,19.32
2023-05-25T19:57:03.950Z,19.32
2023-05-25T19:59:31.433Z,19.27
2023-05-25T20:01:58.899Z,19.21
2023-05-25T20:04:26.535Z,19.16
2023-05-25T20:06:54.113Z,19.11
2023-05-25T20:09:29.514Z,19.08
2023-05-25T20:11:59.902Z,19.00
2023-05-25T20:14:27.069Z,18.96
2023-05-25T20:16:56.790Z,18.94
2023-05-25T20:19:23.678Z,18.85
2023-05-25T20:21:51.045Z,18.82
2023-05-25T20:24:18.371Z,18.77
2023-05-25T20:26:45.296Z,18.75
2023-05-25T20:29:12.212Z,18.74
2023-05-25T20:31:39.217Z,18.67
2023-05-25T20:34:06.415Z,18.58
2023-05-25T20:36:33.329Z,18.57
2023-05-25T20:39:00.338Z,18.53
2023-05-25T20:41:27.352Z,18.47
2023-05-25T20:43:54.315Z,18.44
2023-05-25T20:46:21.201Z,18.37
2023-05-25T20:48:48.162Z,18.33
2023-05-25T20:51:15.134Z,18.30
2023-05-25T20:53:42.027Z,18.27
2023-05-25T20:56:08.876Z,18.21
2023-05-25T20:58:37.445Z,18.16
2023-05-25T21:01:04.525Z,18.14
2023-05-25T21:03:31.578Z,18.08
2023-05-25T21:05:58.611Z,18.03
2023-05-25T21:08:25.641Z,18.00
2023-05-25T21:10:52.502Z,17.98
2023-05-25T21:13:19.392Z,17.94
2023-05-25T21:15:46.584Z,17.91
2023-05-25T21:18:13.619Z,17.85
2023-05-25T21:20:40.698Z,17.84
2023-05-25T21:23:07.673Z,17.82
2023-05-25T21:25:34.609Z,17.76
2023-05-25T21:28:01.477Z,17.69
2023-05-25T21:30:28.371Z,17.66
2023-05-25T21:32:55.440Z,17.59
2023-05-25T21:35:22.378Z,17.58
2023-05-25T21:37:49.359Z,17.58
2023-05-25T21:40:16.477Z,17.54
2023-05-25T21:42:43.384Z,17.49
2023-05-25T21:45:10.567Z,17.45
2023-05-25T21:47:37.643Z,17.42
2023-05-25T21:50:05.212Z,17.38
2023-05-25T21:52:32.160Z,17.37
2023-05-25T21:54:59.020Z,17.33
2023-05-25T21:57:25.997Z,17.26
2023-05-25T21:59:52.960Z,17.23
2023-05-25T22:02:20.485Z,17.22
2023-05-25T22:04:47.412Z,17.20
2023-05-25T22:07:14.320Z,17.19
2023-05-25T22:09:41.193Z,17.14
2023-05-25T22:12:10.287Z,17.11
2023-05-25T22:14:37.241Z,17.06
2023-05-25T22:17:04.379Z,16.99
2023-05-25T22:19:31.566Z,16.99
2023-05-25T22:21:58.552Z,16.96
2023-05-25T22:24:25.570Z,16.87
2023-05-25T22:26:52.778Z,16.83
2023-05-25T22:29:19.818Z,16.77
2023-05-25T22:31:46.724Z,16.75
2023-05-25T22:34:13.793Z,16.71
2023-05-25T22:36:40.690Z,16.67
2023-05-25T22:39:07.604Z,16.60
2023-05-25T22:41:34.472Z,16.58
2023-05-25T22:44:01.601Z,16.51
2023-05-25T22:46:28.722Z,16.50
2023-05-25T22:48:56.555Z,16.48
2023-05-25T22:51:23.437Z,16.42
2023-05-25T22:53:50.347Z,16.35
2023-05-25T22:56:17.613Z,16.30
2023-05-25T22:58:44.531Z,16.25
2023-05-25T23:01:11.490Z,16.28
2023-05-25T23:03:38.485Z,16.21
2023-05-25T23:06:05.676Z,16.15
2023-05-25T23:08:32.504Z,16.06
2023-05-25T23:10:59.476Z,16.05
2023-05-25T23:13:27.798Z,16.04
2023-05-25T23:15:55.376Z,16.01
2023-05-25T23:18:22.386Z,15.99
2023-05-25T23:20:50.393Z,15.98
2023-05-25T23:23:17.253Z,15.99
2023-05-25T23:25:45.935Z,15.90
2023-05-25T23:28:12.852Z,15.82
2023-05-25T23:30:40.001Z,15.76
2023-05-25T23:33:08.315Z,15.66
2023-05-25T23:35:35.356Z,15.67
2023-05-25T23:38:02.290Z,15.62
2023-05-25T23:40:29.424Z,15.60
2023-05-25T23:42:56.546Z,15.52
2023-05-25T23:45:23.457Z,15.50
2023-05-25T23:47:50.500Z,15.43
2023-05-25T23:50:17.437Z,15.38
2023-05-25T23:52:46.088Z,15.35
2023-05-25T23:55:14.547Z,15.33
2023-05-25T23:57:41.502Z,15.30
